Alt del Rio, Puerto Rico
Current Conditions -  °F | °C
As of 7:56 PM on Thursday 30 Oct 2014 (Local Time) from TJSJ Reporting Station
Thunderstorm Thunderstorm  
Wind Chill: 81°   Ceiling: 3300
Heat Index: 89°   Visibility: 5mi
Dew Point: 79°   Wind: 6mph
Humidity: 94%   Direction: NA
Pressure: 29.83"   Gusts: NA
Location:  18.1781°N, 66.1167°W
Report Text: TJSJ 302356Z VRB05KT 5SM TSRA BR SCT026 BKN033CB OVC045 27/26 A2983 RMK AO2 RAB10 SLP101 FRQ LTGICCG OVHD-W CB OVHD-W MOV NE P0010 60019 T02720261 10311 20272 53015
Loading
Personal Weather Stations






























Interactive Weather Map
Tropical Storm Tracking
New forecast layout! Learn more

10-Day Weather Forecast

Advertisements
Track Severe Weather on mobile